Kempton Park, South Africa
Current Conditions -  °F | °C
As of 10:30 AM on Monday 24 Nov 2014 (Local Time) from FAOR Reporting Station
Few Clouds Few Clouds  
Wind Chill: 72°   Ceiling: Unl
Heat Index: 72°   Visibility: 6mi
Dew Point: 52°   Wind: 5mph
Humidity: 50%   Direction: NA
Pressure: 30.27"   Gusts: NA
Location:  26.11°S, 28.24°E
Report Text: FAOR 240830Z VRB04KT 9999 FEW045 22/11 Q1025 NOSIG
Loading
Personal Weather Stations






























Interactive Weather Map New forecast layout! Learn more

10-Day Weather Forecast

Advertisements
Track Severe Weather on mobile